BKV weather

Hernando County Airport
Brooksville, Florida, United States

Public forecast

Using degrees Fahrenheit for public forecast. Weather courtesy of forecast.io.

Current aviation weather report (METAR) for Hernando County Airport

Retrieved 2020/01/21 21:53 UTC (41 minutes ago):

KBKV 212153Z 34010KT 10SM BKN045 09/M05 A3021 RMK AO2 SLP230 T00941050

Closest aviation forecast (TAF) to Hernando County Airport

Closest forecast is Tampa International Airport, 30.2 nm (55.9 km) S. Retrieved 2020/01/21 18:30 UTC (4 hours ago):

TAF KTPA 211728Z 2118/2224 35015G20KT P6SM FEW030 FM220000 36012G17KT P6SM SKC FM221500 02010G15KT P6SM SKC